map of TTJ home
TTJ - Airport
Location
City:  Tottori, Tottori, Japan
Name:Tottori Airport
ICAO:RJOR
IATA:TTJ

Details
Type:Airport (Aerodrome, Airfield)
Latitude:3531'48"N (35.530069)
Longitude:13410'00"E (134.166553)
Datum:WGS 1984
Elevation:65 ft (20 m)
Variation:8.07W (WMM2015 magnetic declination)
-0.07 annual change
Runways:1
Longest:6562 × 150 ft (2000 × 45.5 m), paved

Time
Time Zone:UTC+9
Local Time:

Weather
METAR:RJOR 180434Z 08004KT 030V120 3000 -SHRA BR FEW005 SCT015 BKN025 05/04 Q1023 RMK 1ST005 3CU015 5CU025 A3023

Related Locations
Nearby:
Farthest:SSMT: 12013 mi / 19333 km
Mostardas, RS, BR

Find:

   beyond  
but within

Other Information
Maps:
NOTAMs:
Links:
Sources:

  
  • flag of Japan
  • flag of Tottori
  

Sectional Chart

Flight Planning
at skyvector.com

Satellite Image

Google Maps Satellite view

 

Copyright © 2004-2019 Karl L. Swartz. All rights reserved.
The Great Circle Mapper name and logo are trademarks of the Great Circle Mapper.
All other trademarks mentioned herein belong to their respective owners.
Please see credits for attibutions and further copyright information.

  Follow gcmap on Facebook Follow gcmap on Twitter Follow gcmap on Google+ GCmap on LinkedIn

hCard Microformat

Geo Microformat